Arlington, Kansas
Current Conditions -  °F | °C
As of 1:52 PM on Wednesday 26 Nov 2014 (Local Time) from KHUT Reporting Station
Broken Clouds Broken Clouds  
Wind Chill: 36°   Ceiling: 11000
Heat Index: 45°   Visibility: 10mi
Dew Point: 22°   Wind: 25mph
Humidity: 40%   Direction: 310°NW
Pressure: 30.21"   Gusts: 31mph
Location:  37.9°N, 98.18°W
Report Text: KHUT 261952Z 31022G27KT 10SM BKN110 07/M06 A3021 RMK AO2 PK WND 33032/1916 SLP227 T00721056
Loading
Personal Weather Stations






























Interactive Weather Map New forecast layout! Learn more

10-Day Weather Forecast

Advertisements
Track Severe Weather on mobile